createdAt,value
2019-05-07T00:01:56.854Z,12.35
2019-05-07T00:07:02.538Z,12.30
2019-05-07T00:12:07.957Z,12.30
2019-05-07T00:17:13.226Z,12.00
2019-05-07T00:22:18.527Z,12.03
2019-05-07T00:27:23.854Z,12.23
2019-05-07T00:32:29.494Z,12.45
2019-05-07T00:37:42.999Z,12.45
2019-05-07T00:43:05.854Z,12.58
2019-05-07T00:48:12.657Z,12.53
2019-05-07T00:53:18.206Z,12.70
2019-05-07T00:58:26.767Z,12.70
2019-05-07T01:03:32.778Z,13.03
2019-05-07T01:08:37.911Z,13.07
2019-05-07T01:13:43.585Z,12.55
2019-05-07T01:18:48.903Z,13.00
2019-05-07T01:23:55.123Z,13.00
2019-05-07T01:29:02.846Z,12.53
2019-05-07T01:34:27.024Z,12.88
2019-05-07T01:39:32.897Z,12.33
2019-05-07T01:44:38.234Z,12.67
2019-05-07T01:49:43.582Z,12.50
2019-05-07T01:54:48.862Z,12.15
2019-05-07T01:59:54.157Z,12.87
2019-05-07T02:05:05.921Z,13.13
2019-05-07T02:10:32.137Z,11.95
2019-05-07T02:15:37.673Z,12.53
2019-05-07T02:20:43.247Z,13.75
2019-05-07T02:25:48.475Z,12.70
2019-05-07T02:30:53.740Z,12.80
2019-05-07T02:35:59.136Z,12.93
2019-05-07T02:41:09.834Z,14.83
2019-05-07T02:46:30.915Z,17.25
2019-05-07T02:51:36.360Z,16.80
2019-05-07T02:56:43.240Z,34.60
2019-05-07T03:01:48.996Z,31.82
2019-05-07T03:06:54.690Z,93.00
2019-05-07T03:11:59.979Z,57.53
2019-05-07T03:17:05.586Z,39.00
2019-05-07T03:22:14.029Z,41.97
2019-05-07T03:27:17.872Z,30.30
2019-05-07T03:32:36.574Z,17.97
2019-05-07T03:37:38.810Z,12.93
2019-05-07T03:42:45.356Z,13.38
2019-05-07T03:47:56.575Z,12.58
2019-05-07T03:53:02.726Z,12.20
2019-05-07T03:58:08.279Z,13.63
2019-05-07T04:03:18.783Z,12.68
2019-05-07T04:08:23.557Z,11.73
2019-05-07T04:13:29.007Z,11.88
2019-05-07T04:18:34.399Z,11.25
2019-05-07T04:23:39.611Z,12.33
2019-05-07T04:28:54.104Z,11.40
2019-05-07T04:34:03.736Z,11.30
2019-05-07T04:39:09.470Z,11.73
2019-05-07T04:44:14.798Z,12.80
2019-05-07T04:49:20.299Z,13.70
2019-05-07T04:54:25.990Z,14.07
2019-05-07T04:59:33.025Z,14.53
2019-05-07T05:04:39.096Z,14.63
2019-05-07T05:09:44.422Z,13.15
2019-05-07T05:14:49.658Z,13.15
2019-05-07T05:19:56.432Z,12.80
2019-05-07T05:25:12.093Z,12.97
2019-05-07T05:30:26.426Z,13.00
2019-05-07T05:35:32.178Z,13.48
2019-05-07T05:40:37.394Z,12.93
2019-05-07T05:45:44.255Z,12.80
2019-05-07T05:51:07.111Z,14.33
2019-05-07T05:56:19.778Z,13.95
2019-05-07T06:01:53.267Z,13.95
2019-05-07T06:07:10.765Z,12.70
2019-05-07T06:12:42.835Z,12.75
2019-05-07T06:18:02.586Z,13.10
2019-05-07T06:23:23.907Z,12.35
2019-05-07T06:28:29.211Z,12.33
2019-05-07T06:33:34.568Z,13.60
2019-05-07T06:38:48.931Z,13.38
2019-05-07T06:44:02.098Z,14.10
2019-05-07T06:49:08.609Z,14.63
2019-05-07T06:54:14.012Z,15.23
2019-05-07T06:59:34.578Z,14.38
2019-05-07T07:05:02.864Z,14.50
2019-05-07T07:10:33.295Z,16.48
2019-05-07T07:15:38.854Z,15.68
2019-05-07T07:20:45.115Z,16.20
2019-05-07T07:25:52.253Z,20.80
2019-05-07T07:31:19.743Z,19.35
2019-05-07T07:36:26.942Z,18.37
2019-05-07T07:41:38.688Z,19.37
2019-05-07T07:46:43.964Z,20.10
2019-05-07T07:51:49.346Z,19.20
2019-05-07T07:57:13.605Z,20.30
2019-05-07T08:02:42.301Z,20.97
2019-05-07T08:07:47.592Z,21.40
2019-05-07T08:12:53.011Z,23.10
2019-05-07T08:17:58.340Z,23.12
2019-05-07T08:23:03.768Z,22.83
2019-05-07T08:28:09.130Z,23.07
2019-05-07T08:33:19.336Z,21.87
2019-05-07T08:38:24.910Z,18.73
2019-05-07T08:43:32.157Z,19.10
2019-05-07T08:48:42.476Z,18.20
2019-05-07T08:53:52.777Z,18.60
2019-05-07T08:58:58.147Z,17.80
2019-05-07T09:04:03.497Z,13.53
2019-05-07T09:09:13.177Z,13.83
2019-05-07T09:14:18.672Z,14.18
2019-05-07T09:19:25.375Z,16.07
2019-05-07T09:24:33.218Z,14.03
2019-05-07T09:29:56.844Z,14.28
2019-05-07T09:35:02.483Z,14.80
2019-05-07T09:40:08.964Z,13.98
2019-05-07T09:45:14.488Z,12.10
2019-05-07T09:50:22.087Z,11.03
2019-05-07T09:55:27.383Z,11.23
2019-05-07T10:00:32.851Z,11.28
2019-05-07T10:05:39.956Z,11.10
2019-05-07T10:10:50.215Z,11.13
2019-05-07T10:15:54.215Z,10.97
2019-05-07T10:21:00.046Z,11.25
2019-05-07T10:26:05.323Z,10.27
2019-05-07T10:31:10.831Z,10.72
2019-05-07T10:36:16.171Z,10.10
2019-05-07T10:41:22.360Z,9.83
2019-05-07T10:46:56.059Z,10.07
2019-05-07T10:52:02.153Z,8.73
2019-05-07T10:57:07.757Z,9.23
2019-05-07T11:02:18.803Z,7.20
2019-05-07T11:07:24.993Z,6.30
2019-05-07T11:12:31.947Z,5.92
2019-05-07T11:17:47.207Z,5.73
2019-05-07T11:22:52.574Z,5.40
2019-05-07T11:27:59.430Z,7.53
2019-05-07T11:33:04.717Z,8.40
2019-05-07T11:38:18.702Z,8.03
2019-05-07T11:43:27.655Z,8.55
2019-05-07T11:48:37.604Z,7.62
2019-05-07T11:54:02.168Z,7.47
2019-05-07T11:59:07.823Z,6.75
2019-05-07T12:04:14.455Z,6.67
2019-05-07T12:09:21.774Z,6.40
2019-05-07T12:14:31.765Z,6.62
2019-05-07T12:19:35.290Z,5.60
2019-05-07T12:24:41.935Z,5.90
2019-05-07T12:29:47.482Z,5.60
2019-05-07T12:34:58.944Z,5.40
2019-05-07T12:40:05.085Z,5.87
2019-05-07T12:45:12.622Z,6.10
2019-05-07T12:50:18.105Z,5.70
2019-05-07T12:55:35.011Z,4.77
2019-05-07T13:00:55.018Z,4.85
2019-05-07T13:06:02.362Z,4.55
2019-05-07T13:11:07.296Z,4.50
2019-05-07T13:16:12.882Z,4.78
2019-05-07T13:25:11.973Z,3.90
2019-05-07T13:30:17.531Z,4.17
2019-05-07T13:35:22.809Z,4.75
2019-05-07T13:40:34.428Z,4.45
2019-05-07T13:46:02.707Z,4.20
2019-05-07T13:51:08.257Z,4.20
2019-05-07T13:56:13.564Z,4.05
2019-05-07T14:01:37.766Z,4.20
2019-05-07T14:06:43.351Z,4.20
2019-05-07T14:11:49.010Z,4.28
2019-05-07T14:16:54.281Z,4.37
2019-05-07T14:21:59.501Z,4.20
2019-05-07T14:27:04.857Z,3.77
2019-05-07T14:32:29.138Z,3.67
2019-05-07T14:37:37.874Z,6.30
2019-05-07T14:42:48.685Z,4.55
2019-05-07T14:47:54.960Z,3.22
2019-05-07T14:53:02.555Z,3.60
2019-05-07T14:58:07.748Z,5.70
2019-05-07T15:03:13.269Z,11.13
2019-05-07T15:08:18.765Z,3.83
2019-05-07T15:13:24.161Z,4.72
2019-05-07T15:18:48.757Z,5.03
2019-05-07T15:23:56.224Z,2.90
2019-05-07T15:29:07.158Z,6.30
2019-05-07T15:34:12.653Z,4.60
2019-05-07T15:39:17.952Z,4.12
2019-05-07T15:44:23.159Z,4.12
2019-05-07T15:49:28.970Z,3.80
2019-05-07T15:54:34.188Z,3.65
2019-05-07T15:59:39.486Z,3.47
2019-05-07T16:04:45.387Z,3.40
2019-05-07T16:09:52.618Z,3.20
2019-05-07T16:14:58.092Z,3.40
2019-05-07T16:20:03.581Z,4.30
2019-05-07T16:25:09.078Z,3.50
2019-05-07T16:30:15.083Z,3.70
2019-05-07T16:35:22.631Z,3.97
2019-05-07T16:40:27.719Z,3.58
2019-05-07T16:45:33.054Z,3.60
2019-05-07T16:50:38.496Z,3.60
2019-05-07T16:55:43.825Z,3.90
2019-05-07T17:00:52.769Z,4.10
2019-05-07T17:05:58.192Z,3.87
2019-05-07T17:11:03.573Z,3.35
2019-05-07T17:16:12.210Z,3.08
2019-05-07T17:21:17.023Z,3.08
2019-05-07T17:26:23.742Z,3.30
2019-05-07T17:31:28.963Z,2.80
2019-05-07T17:36:34.405Z,3.12
2019-05-07T17:41:40.272Z,3.17
2019-05-07T17:46:46.228Z,3.65
2019-05-07T17:51:52.727Z,3.40
2019-05-07T17:56:58.056Z,2.90
2019-05-07T18:02:19.342Z,2.72
2019-05-07T18:07:25.026Z,2.87
2019-05-07T18:12:32.041Z,2.75
2019-05-07T18:18:03.068Z,3.35
2019-05-07T18:23:10.645Z,3.00
2019-05-07T18:28:16.157Z,3.05
2019-05-07T18:33:42.503Z,2.70
2019-05-07T18:38:48.144Z,4.93
2019-05-07T18:43:54.736Z,3.58
2019-05-07T18:49:00.242Z,4.92
2019-05-07T18:54:05.958Z,15.00
2019-05-07T18:59:12.011Z,8.63
2019-05-07T19:04:17.991Z,4.58
2019-05-07T19:09:23.660Z,4.15
2019-05-07T19:14:29.079Z,4.28
2019-05-07T19:19:34.893Z,4.90
2019-05-07T19:24:45.247Z,4.83
2019-05-07T19:29:48.268Z,5.37
2019-05-07T19:34:55.087Z,5.40
2019-05-07T19:40:02.024Z,8.93
2019-05-07T19:45:12.805Z,8.70
2019-05-07T19:50:19.518Z,6.30
2019-05-07T19:55:24.955Z,6.55
2019-05-07T20:00:32.831Z,6.65
2019-05-07T20:05:39.381Z,6.83
2019-05-07T20:10:58.325Z,6.72
2019-05-07T20:16:13.864Z,5.12
2019-05-07T20:21:22.648Z,4.90
2019-05-07T20:26:27.441Z,5.03
2019-05-07T20:31:33.841Z,4.95
2019-05-07T20:36:40.104Z,5.17
2019-05-07T20:41:46.563Z,5.50
2019-05-07T20:46:53.603Z,6.25
2019-05-07T20:51:59.713Z,5.78
2019-05-07T20:57:08.305Z,6.03
2019-05-07T21:02:16.325Z,6.33
2019-05-07T21:07:22.220Z,5.73
2019-05-07T21:12:28.048Z,5.80
2019-05-07T21:17:35.108Z,6.00
2019-05-07T21:22:42.446Z,6.15
2019-05-07T21:27:48.318Z,5.53
2019-05-07T21:32:54.635Z,5.83
2019-05-07T21:38:01.243Z,5.70
2019-05-07T21:43:07.206Z,5.95
2019-05-07T21:48:13.822Z,6.12
2019-05-07T21:53:25.542Z,6.37
2019-05-07T21:58:40.994Z,6.83
2019-05-07T22:03:56.113Z,6.97
2019-05-07T22:09:02.581Z,7.83
2019-05-07T22:14:10.049Z,7.42
2019-05-07T22:19:16.239Z,7.00
2019-05-07T22:24:22.584Z,7.65
2019-05-07T22:29:28.475Z,7.85
2019-05-07T22:34:56.639Z,7.12
2019-05-07T22:40:04.205Z,7.17
2019-05-07T22:45:12.104Z,7.63
2019-05-07T22:50:18.080Z,6.78
2019-05-07T22:55:23.458Z,7.72
2019-05-07T23:00:33.568Z,7.28
2019-05-07T23:05:39.267Z,7.90
2019-05-07T23:10:44.757Z,8.48
2019-05-07T23:15:51.653Z,8.55
2019-05-07T23:20:57.284Z,8.05
2019-05-07T23:26:02.957Z,7.90
2019-05-07T23:31:08.262Z,7.60
2019-05-07T23:36:14.835Z,7.67
2019-05-07T23:41:42.152Z,8.10
2019-05-07T23:46:51.844Z,8.13
2019-05-07T23:51:57.043Z,7.87
2019-05-07T23:57:07.110Z,8.40
